Time;durP1;ratioP1;P1;durP2;ratioP2;P2;SDS_P1;SDS_P2;PMS_P1;PMS_P2;Temp;Humidity;BMP_temperature;BMP_pressure;BME280_temperature;BME280_humidity;BME280_pressure;Samples;Min_cycle;Max_cycle;Signal;HPM_P1;HPM_P2
2022/02/02 00:01:14;;;;;;;10.10;5.20;;;;;;;4.79;82.76;96352.81;5051936;28;20057;-77
2022/02/02 00:03:49;;;;;;;5.28;4.13;;;;;;;4.80;82.73;96359.56;5040961;28;20052;-77
2022/02/02 00:06:22;;;;;;;5.35;3.33;;;;;;;4.82;83.25;96359.44;5040256;28;20057;-77
2022/02/02 00:08:58;;;;;;;5.55;4.30;;;;;;;4.83;82.97;96356.72;5040130;28;20049;-77
2022/02/02 00:14:31;;;;;;;4.88;2.97;;;;;;;4.83;82.93;96353.28;5050307;28;20050;-78
2022/02/02 00:17:02;;;;;;;5.00;3.50;;;;;;;4.83;82.70;96358.47;5040223;28;20053;-79
2022/02/02 00:19:47;;;;;;;3.30;2.72;;;;;;;4.83;82.94;96351.53;5039877;28;20050;-77
2022/02/02 00:22:18;;;;;;;5.72;3.42;;;;;;;4.84;82.67;96345.41;5039553;28;20056;-77
2022/02/02 00:27:41;;;;;;;3.83;2.78;;;;;;;4.85;82.27;96354.75;5003654;28;20496;-79
2022/02/02 00:30:14;;;;;;;4.20;3.78;;;;;;;4.86;82.25;96356.41;5040301;28;20049;-76
2022/02/02 00:32:57;;;;;;;;;;;;;;;4.89;82.58;96363.03;5038703;28;20045;-78
2022/02/02 00:35:31;;;;;;;3.50;2.75;;;;;;;4.88;82.13;96359.63;5037967;28;20302;-76
2022/02/02 00:37:59;;;;;;;3.88;2.60;;;;;;;4.86;82.57;96345.25;5038754;28;20049;-77
2022/02/02 00:40:27;;;;;;;3.28;2.13;;;;;;;4.84;82.45;96337.63;5039169;28;20053;-78
2022/02/02 00:42:54;;;;;;;3.92;2.10;;;;;;;4.83;82.20;96335.19;5039041;28;20053;-78
2022/02/02 00:45:29;;;;;;;3.20;1.92;;;;;;;4.83;82.36;96336.03;5038070;28;20045;-77
2022/02/02 00:47:59;;;;;;;2.55;1.98;;;;;;;4.84;82.21;96332.47;5038419;28;20061;-79
2022/02/02 00:50:28;;;;;;;2.53;2.25;;;;;;;4.85;82.31;96322.94;5037591;28;20053;-76
2022/02/02 00:52:56;;;;;;;2.53;1.88;;;;;;;4.84;82.56;96337.63;5037584;28;20054;-80
2022/02/02 00:55:24;;;;;;;3.05;2.08;;;;;;;4.85;82.13;96349.59;5038482;28;20053;-77
2022/02/02 00:57:52;;;;;;;3.03;2.63;;;;;;;4.86;82.51;96360.75;5037838;28;20060;-78
2022/02/02 01:00:20;;;;;;;2.80;2.47;;;;;;;4.86;82.81;96366.72;5038707;28;20076;-78
2022/02/02 01:02:48;;;;;;;3.00;2.40;;;;;;;4.89;82.56;96371.59;5038358;28;20083;-77
2022/02/02 01:05:15;;;;;;;5.30;2.53;;;;;;;4.91;82.39;96369.66;5038195;28;20419;-77
2022/02/02 01:10:35;;;;;;;2.53;2.30;;;;;;;4.92;82.13;96396.34;5038033;28;20109;-79
2022/02/02 01:13:21;;;;;;;3.60;2.72;;;;;;;4.91;82.17;96392.91;5037781;28;20072;-79
2022/02/02 01:16:38;;;;;;;2.70;2.30;;;;;;;4.90;82.32;96383.56;5037325;28;20053;-77
2022/02/02 01:19:00;;;;;;;4.82;2.83;;;;;;;4.91;82.26;96374.84;5037331;28;20057;-78
2022/02/02 01:21:32;;;;;;;5.30;3.63;;;;;;;4.93;82.53;96361.75;5038261;28;20056;-78
2022/02/02 01:29:36;;;;;;;4.35;3.30;;;;;;;4.97;82.31;96364.88;5026762;28;20050;-78
2022/02/02 01:32:04;;;;;;;3.78;3.00;;;;;;;4.97;82.57;96367.44;5038081;28;20045;-77
2022/02/02 01:34:32;;;;;;;4.35;3.38;;;;;;;4.98;82.19;96376.81;5037127;28;20090;-77
2022/02/02 01:36:59;;;;;;;6.20;3.60;;;;;;;5.00;82.52;96392.97;5037811;28;20524;-77
2022/02/02 01:39:30;;;;;;;5.95;3.83;;;;;;;5.00;82.77;96390.41;5038125;28;20045;-76
2022/02/02 01:42:00;;;;;;;5.00;3.35;;;;;;;5.02;82.48;96396.22;5038110;28;20053;-79
2022/02/02 01:44:34;;;;;;;5.65;3.33;;;;;;;5.02;82.65;96396.22;5038281;28;20053;-78
2022/02/02 01:47:03;;;;;;;8.02;3.92;;;;;;;5.01;82.66;96395.44;5037706;28;20057;-77
2022/02/02 01:52:39;;;;;;;5.03;2.75;;;;;;;5.02;82.66;96391.06;5036566;28;20522;-78
2022/02/02 01:55:11;;;;;;;6.40;3.10;;;;;;;5.00;82.62;96378.28;5037104;28;20053;-77
2022/02/02 01:58:04;;;;;;;7.07;2.88;;;;;;;5.00;82.85;96382.66;5037325;28;20076;-79
2022/02/02 02:00:32;;;;;;;9.18;3.33;;;;;;;5.01;82.69;96371.31;5037178;28;20108;-79
2022/02/02 02:03:02;;;;;;;5.18;2.83;;;;;;;5.01;82.43;96358.41;5037174;28;20060;-79
2022/02/02 02:05:29;;;;;;;7.13;2.85;;;;;;;5.01;82.67;96358.41;5035800;28;20076;-77
2022/02/02 02:07:57;;;;;;;7.00;2.85;;;;;;;4.99;82.51;96366.34;5036475;28;20125;-78
2022/02/02 02:10:26;;;;;;;7.45;2.67;;;;;;;5.00;82.83;96364.56;5036776;28;20053;-78
2022/02/02 02:12:58;;;;;;;4.05;3.03;;;;;;;5.01;82.80;96371.31;5037131;28;20515;-78
2022/02/02 02:15:29;;;;;;;3.95;2.60;;;;;;;5.02;82.71;96366.00;5037264;28;20057;-79
2022/02/02 02:17:58;;;;;;;11.27;3.00;;;;;;;5.03;82.38;96377.16;5036607;28;20419;-76
2022/02/02 02:20:26;;;;;;;8.10;2.83;;;;;;;5.02;82.72;96363.44;5036687;28;20046;-78
2022/02/02 02:22:55;;;;;;;5.07;2.50;;;;;;;5.02;82.71;96365.22;5036724;28;20045;-79
2022/02/02 02:25:25;;;;;;;7.88;3.00;;;;;;;5.02;82.49;96375.56;5037230;28;20042;-78
2022/02/02 02:27:55;;;;;;;8.07;2.83;;;;;;;5.03;82.78;96378.00;5035943;28;20132;-80
2022/02/02 02:30:29;;;;;;;6.97;2.70;;;;;;;5.05;82.63;96373.47;5036573;28;20045;-79
2022/02/02 02:33:29;;;;;;;7.15;2.83;;;;;;;5.06;82.46;96382.84;5037162;28;20050;-79
2022/02/02 02:36:23;;;;;;;8.13;2.47;;;;;;;5.07;82.40;96381.91;5037214;28;20046;-77
2022/02/02 02:55:54;;;;;;;6.85;2.58;;;;;;;5.10;81.96;96378.19;5037078;28;20049;-79
2022/02/02 02:58:39;;;;;;;13.07;3.50;;;;;;;5.09;82.15;96372.19;5039976;28;20478;-79
2022/02/02 03:01:27;;;;;;;6.45;2.45;;;;;;;5.08;82.37;96364.59;5041744;28;20045;-78
2022/02/02 03:31:40;;;;;;;12.63;2.88;;;;;;;4.98;82.23;96363.88;5039973;28;20125;-78
2022/02/02 03:59:12;;;;;;;7.13;1.85;;;;;;;4.97;81.82;96341.59;5043874;28;20046;-76
2022/02/02 04:02:03;;;;;;;7.15;1.77;;;;;;;4.97;81.85;96320.94;5041851;28;20045;-76
2022/02/02 04:04:42;;;;;;;6.10;1.67;;;;;;;4.94;81.76;96330.59;5038359;28;20057;-77
2022/02/02 04:07:16;;;;;;;4.57;1.30;;;;;;;4.94;81.62;96334.94;5038185;28;20053;-79
2022/02/02 04:09:45;;;;;;;6.65;1.48;;;;;;;4.95;81.69;96342.56;5049105;28;20063;-78
2022/02/02 04:12:21;;;;;;;5.28;1.95;;;;;;;4.95;81.78;96345.13;5051800;28;20079;-76
2022/02/02 04:15:44;;;;;;;5.28;1.75;;;;;;;4.94;81.45;96325.44;5038712;28;20056;-75
2022/02/02 04:18:13;;;;;;;5.85;1.27;;;;;;;4.95;81.61;96328.81;5038427;28;20058;-76
2022/02/02 04:54:28;;;;;;;7.65;3.70;;;;;;;5.12;82.16;96394.38;4976778;28;20439;-78
2022/02/02 04:59:49;;;;;;;11.90;2.55;;;;;;;5.03;82.16;96397.84;5015132;28;20431;-77
2022/02/02 05:05:32;;;;;;;14.48;2.83;;;;;;;4.93;81.59;96392.78;5037171;28;20061;-77
2022/02/02 05:08:08;;;;;;;17.50;3.78;;;;;;;4.90;81.54;96396.47;5036823;28;20064;-78
2022/02/02 05:10:46;;;;;;;15.70;4.00;;;;;;;4.87;81.27;96389.00;5037186;28;20046;-78
2022/02/02 05:19:08;;;;;;;17.95;3.60;;;;;;;4.86;81.03;96400.31;5036044;28;20049;-76
2022/02/02 05:41:52;;;;;;;11.50;3.10;;;;;;;4.66;80.91;96447.97;5072969;28;20073;-75
2022/02/02 05:44:35;;;;;;;10.85;2.55;;;;;;;4.66;80.89;96443.63;5073847;28;20083;-78
2022/02/02 05:50:30;;;;;;;15.63;3.00;;;;;;;4.71;80.58;96446.56;5073036;28;20060;-78
2022/02/02 05:52:45;;;;;;;13.25;2.83;;;;;;;4.75;80.34;96457.44;5073083;28;20082;-77
2022/02/02 05:55:13;;;;;;;19.67;7.15;;;;;;;4.77;80.41;96442.59;5073218;28;20098;-79
2022/02/02 05:57:42;;;;;;;14.75;5.32;;;;;;;4.78;80.29;96449.34;5073095;28;20068;-78
2022/02/02 06:00:13;;;;;;;11.23;4.38;;;;;;;4.81;80.19;96441.31;5073197;28;20055;-78
2022/02/02 06:02:47;;;;;;;9.52;3.08;;;;;;;4.85;80.53;96441.81;5072747;28;20080;-77
2022/02/02 06:05:15;;;;;;;10.48;3.38;;;;;;;4.87;80.53;96445.88;5072920;28;20053;-79
2022/02/02 06:07:43;;;;;;;9.50;3.13;;;;;;;4.90;80.21;96449.97;5072512;28;20056;-78
2022/02/02 06:10:15;;;;;;;8.85;3.05;;;;;;;4.91;80.69;96452.38;5072957;28;20344;-78
2022/02/02 06:12:43;;;;;;;11.70;3.13;;;;;;;4.94;80.67;96440.91;5073123;28;20053;-79
2022/02/02 06:15:16;;;;;;;12.90;3.40;;;;;;;4.97;80.98;96458.72;5072640;28;20049;-79
2022/02/02 06:17:48;;;;;;;;;;;;;;;5.00;80.88;96476.50;5072969;28;20053;-80
2022/02/02 06:20:16;;;;;;;9.20;3.50;;;;;;;4.99;80.47;96480.06;5073884;28;19921;-77
2022/02/02 06:22:52;;;;;;;8.82;3.55;;;;;;;4.99;80.65;96474.09;5072676;28;20053;-77
2022/02/02 06:25:24;;;;;;;13.88;3.75;;;;;;;4.98;81.25;96464.69;5072018;28;20045;-80
2022/02/02 06:27:58;;;;;;;10.27;3.20;;;;;;;4.98;81.55;96477.63;5075765;28;20061;-81
2022/02/02 06:30:28;;;;;;;15.07;4.15;;;;;;;4.99;81.67;96489.59;5076880;28;20045;-79
2022/02/02 06:33:06;;;;;;;9.77;3.85;;;;;;;4.99;81.54;96489.59;5075827;28;20403;-81
2022/02/02 06:35:34;;;;;;;7.90;3.63;;;;;;;4.99;81.66;96477.47;5076439;28;20414;-76
2022/02/02 06:38:03;;;;;;;9.57;3.50;;;;;;;4.95;81.07;96494.25;5058849;28;20103;-76
2022/02/02 06:40:35;;;;;;;18.45;3.83;;;;;;;4.92;81.35;96489.41;5058168;28;20053;-76
2022/02/02 06:43:04;;;;;;;13.48;3.03;;;;;;;4.90;81.39;96492.13;5057682;28;20518;-77
2022/02/02 06:45:34;;;;;;;14.40;3.65;;;;;;;4.88;81.14;96506.97;5058152;28;20053;-78
2022/02/02 06:48:02;;;;;;;13.45;3.25;;;;;;;4.86;81.09;96516.63;5057289;28;20045;-76
2022/02/02 06:50:34;;;;;;;16.20;4.13;;;;;;;4.86;81.02;96510.66;5057625;28;20052;-78
2022/02/02 06:53:12;;;;;;;14.05;3.60;;;;;;;4.84;81.02;96503.03;5057505;28;20053;-77
2022/02/02 06:55:48;;;;;;;10.23;3.17;;;;;;;4.84;81.15;96522.91;5058022;28;20044;-76
2022/02/02 06:58:37;;;;;;;15.63;4.00;;;;;;;4.83;80.56;96532.44;5056393;28;20060;-77
2022/02/02 07:01:29;;;;;;;14.85;4.10;;;;;;;4.84;81.01;96548.75;5056198;28;20045;-77
2022/02/02 07:04:11;;;;;;;13.70;3.10;;;;;;;4.83;80.84;96566.03;5056994;28;20053;-74
2022/02/02 07:06:48;;;;;;;11.35;3.22;;;;;;;4.83;80.77;96584.13;5055459;28;20124;-75
2022/02/02 07:09:39;;;;;;;12.65;3.25;;;;;;;4.84;80.86;96588.34;5052972;28;20056;-75
2022/02/02 07:12:22;;;;;;;16.00;3.58;;;;;;;4.85;81.17;96569.25;5037568;28;20057;-76
2022/02/02 07:15:12;;;;;;;;;;;;;;;4.87;81.50;96562.19;5055232;28;20095;-75
2022/02/02 07:17:48;;;;;;;13.88;3.15;;;;;;;4.88;80.74;96570.78;5055867;28;19927;-76
2022/02/02 07:20:24;;;;;;;12.50;2.60;;;;;;;4.88;80.38;96574.16;5055760;28;20049;-77
2022/02/02 07:26:18;;;;;;;10.75;3.47;;;;;;;4.94;79.66;96572.75;5046276;28;20045;-77
2022/02/02 07:28:56;;;;;;;9.18;2.80;;;;;;;4.95;80.15;96580.38;5056957;28;20053;-78
2022/02/02 07:31:37;;;;;;;11.43;3.05;;;;;;;4.96;80.41;96583.75;5057161;28;20052;-77
2022/02/02 07:34:18;;;;;;;9.80;3.15;;;;;;;5.00;80.58;96598.00;5057342;28;20060;-77
2022/02/02 07:36:50;;;;;;;9.98;2.58;;;;;;;5.02;79.78;96603.03;5036851;28;20080;-78
2022/02/02 07:39:17;;;;;;;7.72;2.72;;;;;;;5.02;80.37;96601.25;5038083;28;20065;-75
2022/02/02 07:41:48;;;;;;;12.38;3.22;;;;;;;5.05;80.14;96600.16;5037578;28;20100;-75
2022/02/02 07:44:19;;;;;;;8.57;3.83;;;;;;;5.05;80.51;96592.41;5037232;28;20099;-77
2022/02/02 07:46:48;;;;;;;10.27;3.30;;;;;;;5.06;80.42;96591.47;5038917;28;20076;-75
2022/02/02 07:49:22;;;;;;;9.98;3.22;;;;;;;5.06;80.72;96589.69;5038142;28;20049;-75
2022/02/02 07:51:51;;;;;;;10.90;3.50;;;;;;;5.08;80.64;96587.75;5039604;28;20049;-76
2022/02/02 07:54:23;;;;;;;10.02;3.97;;;;;;;5.09;80.70;96588.56;5038668;28;20056;-77
2022/02/02 07:57:10;;;;;;;8.25;3.40;;;;;;;5.10;80.84;96585.03;5037694;28;20064;-77
2022/02/02 07:59:47;;;;;;;9.48;3.45;;;;;;;5.12;80.63;96583.13;5039663;28;20076;-77
2022/02/02 08:02:18;;;;;;;9.23;3.17;;;;;;;5.13;80.78;96590.69;5047324;28;20049;-77
2022/02/02 08:04:47;;;;;;;11.50;3.50;;;;;;;5.14;80.56;96599.28;5057918;28;20122;-75
2022/02/02 08:07:22;;;;;;;18.20;4.43;;;;;;;5.15;80.87;96619.00;5058464;28;20395;-75
2022/02/02 08:10:02;;;;;;;12.73;4.93;;;;;;;5.15;81.09;96619.00;5058378;28;20426;-75
2022/02/02 08:12:33;;;;;;;9.10;3.65;;;;;;;5.16;81.00;96633.56;5059330;28;20053;-76
2022/02/02 08:15:00;;;;;;;12.73;3.80;;;;;;;5.17;80.98;96632.59;5058556;28;20045;-76
2022/02/02 08:17:28;;;;;;;15.35;5.07;;;;;;;5.20;80.26;96626.31;5058183;28;20055;-78
2022/02/02 08:19:57;;;;;;;19.63;4.55;;;;;;;5.22;79.94;96620.03;5058429;28;20049;-77
2022/02/02 08:22:29;;;;;;;16.23;4.18;;;;;;;5.26;80.15;96621.38;5057500;28;20056;-76
2022/02/02 08:24:57;;;;;;;15.50;4.23;;;;;;;5.31;79.99;96621.75;5057547;28;20053;-77
2022/02/02 08:27:24;;;;;;;19.23;4.32;;;;;;;5.35;79.73;96619.66;5055963;28;20052;-77
2022/02/02 08:29:53;;;;;;;15.65;5.38;;;;;;;5.39;80.04;96613.25;5056227;28;20132;-77
2022/02/02 08:32:23;;;;;;;16.73;4.15;;;;;;;5.40;80.17;96614.03;5057313;28;20052;-76
2022/02/02 08:34:51;;;;;;;19.92;3.88;;;;;;;5.41;79.25;96626.03;5058001;28;20082;-75
2022/02/02 08:37:28;;;;;;;15.02;3.92;;;;;;;5.39;78.54;96625.38;5057221;28;20048;-76
2022/02/02 08:40:07;;;;;;;17.70;3.97;;;;;;;5.41;78.97;96623.44;5058123;28;20061;-75
2022/02/02 08:42:36;;;;;;;17.80;4.05;;;;;;;5.44;78.26;96643.84;5058061;28;20064;-77
2022/02/02 08:45:17;;;;;;;13.23;4.25;;;;;;;5.48;78.71;96643.38;5058363;28;20049;-79
2022/02/02 08:47:51;;;;;;;15.63;3.53;;;;;;;5.52;78.69;96641.31;5056725;28;20045;-78
2022/02/02 08:50:26;;;;;;;14.68;3.92;;;;;;;5.55;78.67;96635.84;5057972;28;20060;-76
2022/02/02 08:52:59;;;;;;;16.20;4.50;;;;;;;5.58;78.06;96640.72;5057313;28;20049;-78
2022/02/02 08:55:55;;;;;;;20.25;4.68;;;;;;;5.63;78.02;96653.22;5057865;28;20048;-77
2022/02/02 08:58:30;;;;;;;14.02;4.47;;;;;;;5.61;77.74;96645.59;5057640;28;20063;-78
2022/02/02 09:00:59;;;;;;;18.05;4.78;;;;;;;5.62;77.74;96646.41;5057359;28;20056;-78
2022/02/02 09:06:12;;;;;;;11.27;3.67;;;;;;;5.61;78.28;96662.91;5056603;28;20103;-77
2022/02/02 09:08:43;;;;;;;16.73;3.80;;;;;;;5.61;78.78;96663.72;5056953;28;20056;-77
2022/02/02 09:25:22;;;;;;;20.27;3.80;;;;;;;5.62;78.07;96693.81;5054334;28;20053;-74
2022/02/02 09:36:07;;;;;;;11.88;3.42;;;;;;;5.57;78.67;96706.38;5048514;28;20049;-77
2022/02/02 09:38:35;;;;;;;23.30;4.70;;;;;;;5.56;78.41;96713.31;5056019;28;20060;-75
2022/02/02 09:43:56;;;;;;;20.02;3.50;;;;;;;5.54;77.85;96727.38;5055992;28;20045;-79
2022/02/02 09:46:28;;;;;;;15.13;3.87;;;;;;;5.52;77.87;96724.13;5055568;28;20060;-74
2022/02/02 09:48:59;;;;;;;17.67;4.88;;;;;;;5.52;78.35;96732.69;5055056;28;20091;-75
2022/02/02 09:51:32;;;;;;;19.70;4.05;;;;;;;5.52;78.17;96717.16;5055804;28;20517;-76
2022/02/02 09:54:04;;;;;;;11.68;3.75;;;;;;;5.52;78.10;96719.75;5056533;28;20049;-75
2022/02/02 09:56:48;;;;;;;10.30;3.30;;;;;;;5.53;78.33;96721.41;5055971;28;20045;-75
2022/02/02 09:59:52;;;;;;;19.02;4.35;;;;;;;5.55;78.86;96726.41;5056713;28;20052;-75
2022/02/02 10:02:33;;;;;;;16.33;4.10;;;;;;;5.56;78.29;96730.63;5057393;28;20049;-76
2022/02/02 10:05:11;;;;;;;14.50;4.30;;;;;;;5.57;78.33;96742.59;5055779;28;20557;-75
2022/02/02 10:08:07;;;;;;;12.05;3.80;;;;;;;5.58;78.28;96739.06;5056290;28;20057;-75
2022/02/02 10:13:52;;;;;;;13.88;4.25;;;;;;;5.58;77.51;96745.06;5058338;28;20057;-77
2022/02/02 10:16:21;;;;;;;17.65;3.92;;;;;;;5.59;78.05;96743.28;5059913;28;20399;-76
2022/02/02 10:18:50;;;;;;;13.40;3.75;;;;;;;5.58;77.75;96749.41;5058433;28;20110;-74
2022/02/02 10:21:30;;;;;;;13.63;4.57;;;;;;;5.58;77.84;96744.25;5058666;28;20048;-76
2022/02/02 10:23:58;;;;;;;17.33;3.95;;;;;;;5.61;77.43;96749.13;5059196;28;20068;-74
2022/02/02 10:26:25;;;;;;;15.23;4.30;;;;;;;5.63;76.86;96741.22;5058990;28;20055;-76
2022/02/02 10:29:07;;;;;;;13.10;3.80;;;;;;;5.66;76.17;96751.25;5059700;28;20048;-74
2022/02/02 10:31:39;;;;;;;18.60;3.50;;;;;;;5.65;76.89;96765.16;5060266;28;20056;-75
2022/02/02 10:34:12;;;;;;;10.95;3.65;;;;;;;5.65;76.47;96755.63;5059121;28;20453;-76
2022/02/02 10:36:40;;;;;;;;;;;;;;;5.69;76.86;96772.50;5058929;28;20045;-78
2022/02/02 10:39:11;;;;;;;14.43;3.33;;;;;;;5.68;77.01;96791.56;5059301;28;19927;-78
2022/02/02 10:41:49;;;;;;;11.60;3.47;;;;;;;5.65;76.69;96786.69;5058270;28;20078;-77
2022/02/02 10:44:31;;;;;;;15.68;3.92;;;;;;;5.68;77.23;96780.41;5057354;28;20067;-76
2022/02/02 10:47:11;;;;;;;13.23;3.60;;;;;;;5.71;77.16;96767.19;5057494;28;20453;-75
2022/02/02 10:49:50;;;;;;;14.60;3.58;;;;;;;5.73;76.81;96768.66;5056978;28;20052;-75
2022/02/02 10:52:34;;;;;;;13.02;3.45;;;;;;;5.75;76.80;96756.38;5057914;28;20049;-76
2022/02/02 10:55:35;;;;;;;13.95;3.45;;;;;;;5.80;76.83;96748.16;5056640;28;20526;-75
2022/02/02 10:58:25;;;;;;;15.38;4.57;;;;;;;5.84;76.27;96749.50;5057335;28;20059;-76
2022/02/02 11:01:20;;;;;;;24.83;4.55;;;;;;;5.87;76.10;96743.22;5057053;28;20064;-75
2022/02/02 11:06:37;;;;;;;19.00;3.67;;;;;;;6.09;75.25;96753.13;5057294;28;20452;-75
2022/02/02 11:09:06;;;;;;;18.02;4.40;;;;;;;6.19;75.57;96753.06;5058141;28;20090;-75
2022/02/02 11:11:39;;;;;;;15.75;3.80;;;;;;;6.20;75.60;96759.84;5057938;28;20071;-76
2022/02/02 11:14:14;;;;;;;14.02;3.38;;;;;;;6.18;75.99;96754.81;5057432;28;20458;-77
2022/02/02 11:16:48;;;;;;;11.23;3.75;;;;;;;6.17;75.61;96753.19;5057075;28;20053;-77
2022/02/02 11:19:18;;;;;;;9.07;2.95;;;;;;;6.15;75.15;96767.28;5058404;28;20056;-76
2022/02/02 11:21:46;;;;;;;15.45;3.95;;;;;;;6.13;76.47;96759.63;5058024;28;20461;-76
2022/02/02 11:24:37;;;;;;;17.65;4.72;;;;;;;6.14;77.08;96776.00;5059709;28;20053;-75
2022/02/02 11:27:05;;;;;;;11.52;3.75;;;;;;;6.11;77.15;96764.16;5059263;28;20041;-77
2022/02/02 11:29:40;;;;;;;13.23;4.25;;;;;;;6.14;78.17;96763.88;5059584;28;20041;-78
2022/02/02 11:32:11;;;;;;;14.75;4.05;;;;;;;6.20;78.10;96762.44;5059377;28;20075;-76
2022/02/02 11:34:40;;;;;;;13.35;3.65;;;;;;;6.28;77.82;96774.66;5059317;28;20049;-75
2022/02/02 11:37:09;;;;;;;19.15;4.43;;;;;;;6.31;78.12;96782.94;5056574;28;20067;-76
2022/02/02 11:39:45;;;;;;;17.17;4.65;;;;;;;6.30;78.24;96788.28;5055527;28;20067;-75
2022/02/02 11:42:52;;;;;;;19.10;4.70;;;;;;;6.24;78.94;96787.09;5055318;28;20514;-76
2022/02/02 11:45:39;;;;;;;16.50;3.80;;;;;;;6.18;78.50;96785.91;5056387;28;20052;-75
2022/02/02 11:48:14;;;;;;;19.20;4.95;;;;;;;6.15;78.55;96775.84;5055357;28;20044;-75
2022/02/02 11:50:51;;;;;;;14.68;4.32;;;;;;;6.13;79.10;96780.34;5055525;28;20060;-75
2022/02/02 11:53:56;;;;;;;9.35;3.50;;;;;;;6.14;79.15;96776.00;5054025;28;20053;-76
2022/02/02 11:56:28;;;;;;;18.00;3.85;;;;;;;6.14;78.93;96774.22;5054690;28;20072;-77
2022/02/02 11:58:56;;;;;;;17.13;4.25;;;;;;;6.17;78.95;96775.72;5056064;28;20045;-75
2022/02/02 12:01:38;;;;;;;16.55;4.55;;;;;;;6.21;78.86;96771.84;5055383;28;20418;-76
2022/02/02 12:04:25;;;;;;;12.57;3.40;;;;;;;6.20;78.41;96775.41;5056009;28;20437;-75
2022/02/02 12:07:01;;;;;;;16.15;4.60;;;;;;;6.19;78.91;96774.59;5055963;28;20060;-75
2022/02/02 12:09:44;;;;;;;16.90;5.20;;;;;;;6.17;79.34;96783.47;5050327;28;20491;-76
2022/02/02 12:49:36;;;;;;;8.25;2.95;;;;;;;8.71;68.24;96835.53;5033559;28;20046;-77
2022/02/02 12:57:54;;;;;;;14.02;3.92;;;;;;;8.18;70.42;96835.81;5032499;28;20056;-74
2022/02/02 13:00:23;;;;;;;12.45;4.35;;;;;;;7.95;71.34;96851.19;5033398;28;20056;-78
2022/02/02 13:02:52;;;;;;;18.45;3.65;;;;;;;7.75;72.24;96844.66;5049762;28;20060;-80
2022/02/02 13:05:24;;;;;;;17.02;3.78;;;;;;;7.59;72.73;96858.41;5058524;28;20131;-77
2022/02/02 13:07:53;;;;;;;14.02;4.55;;;;;;;7.57;73.05;96857.75;5058453;28;20052;-79
2022/02/02 13:10:24;;;;;;;19.45;3.78;;;;;;;7.49;73.22;96855.91;5057300;28;20052;-78
2022/02/02 13:13:03;;;;;;;13.15;3.05;;;;;;;7.46;72.22;96866.63;5057908;28;20152;-80
2022/02/02 13:15:36;;;;;;;15.57;3.60;;;;;;;7.39;71.77;96871.63;5058441;28;20044;-78
2022/02/02 13:18:15;;;;;;;12.32;3.50;;;;;;;7.29;72.23;96868.31;5057844;28;20060;-79
2022/02/02 13:20:52;;;;;;;14.88;4.40;;;;;;;7.18;72.13;96869.38;5058179;28;20072;-78
2022/02/02 13:23:27;;;;;;;9.68;2.72;;;;;;;7.08;72.59;96878.25;5058079;28;20049;-78
2022/02/02 13:26:01;;;;;;;12.15;3.38;;;;;;;7.00;72.33;96882.41;5059037;28;20059;-82
2022/02/02 13:28:44;;;;;;;10.77;3.38;;;;;;;6.96;73.22;96878.50;5057919;28;20053;-79
2022/02/02 13:31:36;;;;;;;12.57;3.03;;;;;;;6.95;72.84;96889.00;5058262;28;20060;-79
2022/02/02 13:34:06;;;;;;;10.35;3.55;;;;;;;6.93;73.34;96894.38;5057563;28;20243;-78
2022/02/02 13:36:49;;;;;;;16.58;4.20;;;;;;;6.89;73.52;96890.44;5054641;28;20067;-78
2022/02/02 13:54:32;;;;;;;12.20;3.00;;;;;;;6.82;72.60;96912.75;5058652;28;20053;-77
2022/02/02 13:57:26;;;;;;;17.92;3.33;;;;;;;6.80;71.94;96906.91;5059344;28;20060;-75
2022/02/02 14:00:22;;;;;;;10.93;2.67;;;;;;;6.79;71.95;96923.41;5059426;28;20052;-75
2022/02/02 14:06:05;;;;;;;8.43;3.03;;;;;;;6.81;71.49;96939.66;5062276;28;20253;-75
2022/02/02 14:33:51;;;;;;;;;;;;;;;6.79;69.18;96959.72;5062731;28;20049;-79
2022/02/02 14:36:22;;;;;;;8.55;2.38;;;;;;;6.77;70.50;96954.69;5062030;28;20027;-78
2022/02/02 14:38:54;;;;;;;10.20;2.63;;;;;;;6.77;69.99;96946.09;5057942;28;20052;-76
2022/02/02 14:41:30;;;;;;;8.18;2.20;;;;;;;6.77;68.88;96944.31;5056596;28;20110;-77
2022/02/02 14:44:02;;;;;;;8.57;2.08;;;;;;;6.75;69.10;96946.22;5056206;28;20417;-77
2022/02/02 14:46:35;;;;;;;11.10;2.38;;;;;;;6.77;68.88;96938.31;5056740;28;20095;-76
2022/02/02 14:49:08;;;;;;;;;;;;;;;6.80;68.88;96943.22;5057077;28;20469;-76
2022/02/02 14:51:48;;;;;;;13.85;6.35;;;;;;;6.78;68.79;96951.13;5056799;28;19921;-75
2022/02/02 14:54:42;;;;;;;11.77;2.90;;;;;;;6.77;67.87;96956.47;5056739;28;20049;-76
2022/02/02 15:09:10;;;;;;;9.82;2.20;;;;;;;6.69;67.88;96952.03;5055967;28;20106;-76
2022/02/02 15:26:29;;;;;;;7.13;2.97;;;;;;;6.71;69.25;96964.81;5055738;28;20426;-77
2022/02/02 15:29:06;;;;;;;7.60;2.10;;;;;;;6.73;69.32;96973.28;5056018;28;20477;-77
2022/02/02 15:31:35;;;;;;;7.00;2.80;;;;;;;6.73;69.25;96979.25;5055678;28;20049;-75
2022/02/02 15:34:28;;;;;;;11.15;2.20;;;;;;;6.77;67.23;96979.78;5055218;28;20078;-76
2022/02/02 15:37:19;;;;;;;9.75;2.63;;;;;;;6.79;68.12;96990.84;5054238;28;20060;-77
2022/02/02 15:39:58;;;;;;;9.95;2.63;;;;;;;6.81;68.54;96991.50;5055722;28;20064;-75
2022/02/02 15:59:21;;;;;;;7.68;2.88;;;;;;;6.77;70.68;97003.13;5091395;27;20389;-77
2022/02/02 16:04:36;;;;;;;9.00;2.65;;;;;;;6.73;71.13;97006.97;5084372;28;20099;-74
2022/02/02 16:07:06;;;;;;;13.70;4.28;;;;;;;6.71;72.01;97008.91;5091618;28;20051;-75
2022/02/02 16:09:44;;;;;;;11.68;3.35;;;;;;;6.71;71.66;97006.31;5091296;28;20470;-76
2022/02/02 16:12:16;;;;;;;11.18;3.47;;;;;;;6.70;70.68;97007.28;5091687;28;20472;-77
2022/02/02 16:14:48;;;;;;;12.75;3.80;;;;;;;6.69;70.73;97010.81;5092141;28;20464;-76
2022/02/02 16:17:36;;;;;;;8.52;2.83;;;;;;;6.68;70.71;97016.97;5092042;28;20543;-77
2022/02/02 16:36:48;;;;;;;15.60;3.67;;;;;;;6.65;73.04;97030.22;5090713;28;20071;-75
2022/02/02 16:39:21;;;;;;;10.15;3.75;;;;;;;6.63;73.47;97025.19;5091218;28;20048;-75
2022/02/02 16:44:34;;;;;;;13.73;4.38;;;;;;;6.62;72.79;97030.53;5091250;28;20044;-76
2022/02/02 16:47:04;;;;;;;12.68;3.53;;;;;;;6.60;72.93;97061.75;5089944;28;20048;-76
2022/02/02 16:49:45;;;;;;;;;;;;;;;6.62;73.83;97090.16;5091041;28;20143;-74
2022/02/02 16:52:15;;;;;;;16.83;5.90;;;;;;;6.57;73.33;97078.44;5091344;28;20396;-78
2022/02/02 16:54:44;;;;;;;13.50;4.68;;;;;;;6.55;73.83;97082.94;5094505;28;20055;-79
2022/02/02 16:57:29;;;;;;;14.77;4.47;;;;;;;6.52;73.91;97096.19;5093603;28;20048;-78
2022/02/02 17:30:33;;;;;;;16.88;4.82;;;;;;;6.05;73.92;97116.94;5082421;28;20052;-80
2022/02/02 17:33:05;;;;;;;9.85;4.70;;;;;;;6.03;74.90;97121.47;5083718;28;20060;-79
2022/02/02 17:35:44;;;;;;;15.43;5.80;;;;;;;6.04;76.13;97132.66;5084073;28;20072;-79
2022/02/02 17:38:20;;;;;;;20.55;6.93;;;;;;;6.02;75.05;97127.59;5084547;28;20150;-78
2022/02/02 18:15:34;;;;;;;17.48;5.80;;;;;;;6.04;78.08;97169.72;5080881;28;20620;-80
2022/02/02 18:20:25;;;;;;;13.00;6.00;;;;;;;6.03;78.33;97170.66;5080434;28;20567;-79
2022/02/02 18:23:01;;;;;;;11.30;5.85;;;;;;;6.03;78.43;97173.25;5081167;28;20056;-79
2022/02/02 18:25:37;;;;;;;11.25;4.90;;;;;;;6.02;78.56;97176.81;5080624;28;20498;-80
2022/02/02 18:28:11;;;;;;;11.10;5.88;;;;;;;6.03;78.80;97178.44;5080067;28;20052;-80
2022/02/02 18:30:50;;;;;;;14.45;6.25;;;;;;;6.03;78.73;97177.63;5080262;28;20045;-80
2022/02/02 18:33:31;;;;;;;13.23;6.65;;;;;;;6.03;79.16;97183.59;5080398;28;20055;-81
2022/02/02 18:36:12;;;;;;;11.70;5.75;;;;;;;6.01;79.11;97195.88;5079106;28;20045;-78
2022/02/02 18:45:02;;;;;;;12.52;6.07;;;;;;;5.96;79.28;97208.44;5076732;28;20048;-75
2022/02/02 18:47:43;;;;;;;10.68;6.88;;;;;;;5.94;79.20;97211.16;5076824;28;20060;-78
2022/02/02 18:50:24;;;;;;;;;;;;;;;5.97;79.50;97217.84;5095437;28;20048;-78
2022/02/02 18:53:38;;;;;;;146.82;81.18;;;;;;;5.94;79.15;97213.75;5097985;28;20308;-78
2022/02/02 18:56:03;;;;;;;33.00;15.60;;;;;;;5.94;79.15;97218.09;5097424;28;20044;-81
2022/02/02 18:58:40;;;;;;;13.43;7.85;;;;;;;5.96;79.49;97226.56;5097955;28;20051;-76
2022/02/02 19:01:19;;;;;;;16.10;6.70;;;;;;;5.96;79.56;97219.59;5098183;28;20052;-82
2022/02/02 19:04:07;;;;;;;13.98;6.30;;;;;;;5.95;79.02;97217.16;5099676;28;20064;-79
2022/02/02 19:06:52;;;;;;;15.73;7.07;;;;;;;5.92;79.05;97228.56;5100517;28;20055;-80
2022/02/02 19:15:42;;;;;;;14.57;7.13;;;;;;;5.89;79.64;97244.38;5100233;28;20055;-78
2022/02/02 19:38:03;;;;;;;13.05;7.72;;;;;;;5.75;78.92;97240.44;5071709;28;20052;-78
2022/02/02 19:40:37;;;;;;;15.38;8.95;;;;;;;5.71;79.29;97246.03;5098431;28;20138;-79
2022/02/02 20:01:43;;;;;;;15.93;8.30;;;;;;;5.62;78.92;97260.59;5137562;27;20360;-78